sensor_id;sensor_type;location;lat;lon;timestamp;pressure;altitude;pressure_sealevel;temperature;humidity
8320;BME280;4197;42.130;24.746;2023-03-19T00:01:03;100116.88;;;3.30;74.10
8320;BME280;4197;42.130;24.746;2023-03-19T00:03:32;100117.44;;;3.27;75.35
8320;BME280;4197;42.130;24.746;2023-03-19T00:06:01;100117.44;;;3.27;75.92
8320;BME280;4197;42.130;24.746;2023-03-19T00:08:31;100124.53;;;3.18;76.00
8320;BME280;4197;42.130;24.746;2023-03-19T00:11:05;100129.75;;;3.09;77.20
8320;BME280;4197;42.130;24.746;2023-03-19T00:13:33;100123.53;;;3.13;76.81
8320;BME280;4197;42.130;24.746;2023-03-19T00:16:01;100116.28;;;3.14;76.84
8320;BME280;4197;42.130;24.746;2023-03-19T00:18:29;100117.88;;;3.15;76.91
8320;BME280;4197;42.130;24.746;2023-03-19T00:20:59;100111.72;;;3.15;77.14
8320;BME280;4197;42.130;24.746;2023-03-19T00:23:27;100113.94;;;3.07;77.25
8320;BME280;4197;42.130;24.746;2023-03-19T00:25:56;100100.97;;;2.96;78.06
8320;BME280;4197;42.130;24.746;2023-03-19T00:28:25;100110.09;;;2.95;78.32
8320;BME280;4197;42.130;24.746;2023-03-19T00:30:53;100108.47;;;2.94;78.81
8320;BME280;4197;42.130;24.746;2023-03-19T00:33:22;100104.78;;;2.89;79.05
8320;BME280;4197;42.130;24.746;2023-03-19T00:35:51;100090.13;;;2.82;78.92
8320;BME280;4197;42.130;24.746;2023-03-19T00:38:20;100093.19;;;2.75;79.66
8320;BME280;4197;42.130;24.746;2023-03-19T00:40:48;100089.50;;;2.66;80.22
8320;BME280;4197;42.130;24.746;2023-03-19T00:43:18;100093.06;;;2.61;80.41
8320;BME280;4197;42.130;24.746;2023-03-19T00:45:46;100086.97;;;2.56;80.67
8320;BME280;4197;42.130;24.746;2023-03-19T00:48:14;100082.47;;;2.51;80.82
8320;BME280;4197;42.130;24.746;2023-03-19T00:50:42;100082.69;;;2.55;80.82
8320;BME280;4197;42.130;24.746;2023-03-19T00:53:11;100085.59;;;2.58;79.77
8320;BME280;4197;42.130;24.746;2023-03-19T00:55:39;100074.38;;;2.56;80.61
8320;BME280;4197;42.130;24.746;2023-03-19T00:58:07;100078.69;;;2.52;80.43
8320;BME280;4197;42.130;24.746;2023-03-19T01:00:37;100076.09;;;2.47;80.68
8320;BME280;4197;42.130;24.746;2023-03-19T01:03:06;100081.50;;;2.42;81.16
8320;BME280;4197;42.130;24.746;2023-03-19T01:05:35;100072.41;;;2.38;80.89
8320;BME280;4197;42.130;24.746;2023-03-19T01:08:07;100073.47;;;2.42;81.57
8320;BME280;4197;42.130;24.746;2023-03-19T01:10:35;100076.66;;;2.44;80.81
8320;BME280;4197;42.130;24.746;2023-03-19T01:13:05;100069.75;;;2.38;80.94
8320;BME280;4197;42.130;24.746;2023-03-19T01:15:34;100070.63;;;2.33;81.73
8320;BME280;4197;42.130;24.746;2023-03-19T01:18:05;100069.25;;;2.36;81.57
8320;BME280;4197;42.130;24.746;2023-03-19T01:20:33;100072.94;;;2.40;81.96
8320;BME280;4197;42.130;24.746;2023-03-19T01:23:02;100062.84;;;2.32;82.41
8320;BME280;4197;42.130;24.746;2023-03-19T01:25:48;100072.03;;;2.26;82.29
8320;BME280;4197;42.130;24.746;2023-03-19T01:28:17;100074.91;;;2.29;82.00
8320;BME280;4197;42.130;24.746;2023-03-19T01:30:45;100075.72;;;2.30;82.59
8320;BME280;4197;42.130;24.746;2023-03-19T01:33:15;100073.16;;;2.19;82.62
8320;BME280;4197;42.130;24.746;2023-03-19T01:35:44;100075.31;;;2.17;83.34
8320;BME280;4197;42.130;24.746;2023-03-19T01:38:14;100078.50;;;2.19;83.54
8320;BME280;4197;42.130;24.746;2023-03-19T01:40:44;100083.13;;;2.14;83.66
8320;BME280;4197;42.130;24.746;2023-03-19T01:43:15;100072.34;;;2.19;83.64
8320;BME280;4197;42.130;24.746;2023-03-19T01:45:45;100072.84;;;2.21;82.99
8320;BME280;4197;42.130;24.746;2023-03-19T01:48:24;100077.97;;;2.17;82.89
8320;BME280;4197;42.130;24.746;2023-03-19T01:50:55;100078.50;;;2.19;82.90
8320;BME280;4197;42.130;24.746;2023-03-19T01:53:27;100073.94;;;2.20;82.86
8320;BME280;4197;42.130;24.746;2023-03-19T01:56:01;100082.78;;;2.20;82.30
8320;BME280;4197;42.130;24.746;2023-03-19T01:58:30;100079.00;;;2.21;82.48
8320;BME280;4197;42.130;24.746;2023-03-19T02:00:58;100076.84;;;2.23;82.27
8320;BME280;4197;42.130;24.746;2023-03-19T02:03:28;100072.53;;;2.28;82.26
8320;BME280;4197;42.130;24.746;2023-03-19T02:05:56;100082.72;;;2.26;81.74
8320;BME280;4197;42.130;24.746;2023-03-19T02:08:26;100084.03;;;2.28;81.90
8320;BME280;4197;42.130;24.746;2023-03-19T02:10:55;100085.34;;;2.31;81.89
8320;BME280;4197;42.130;24.746;2023-03-19T02:13:26;100083.13;;;2.38;80.69
8320;BME280;4197;42.130;24.746;2023-03-19T02:15:54;100085.97;;;2.46;79.86
8320;BME280;4197;42.130;24.746;2023-03-19T02:18:24;100077.56;;;2.58;78.89
8320;BME280;4197;42.130;24.746;2023-03-19T02:20:57;100089.75;;;2.70;77.23
8320;BME280;4197;42.130;24.746;2023-03-19T02:23:34;100086.22;;;2.74;77.48
8320;BME280;4197;42.130;24.746;2023-03-19T02:26:07;100098.47;;;2.80;77.05
8320;BME280;4197;42.130;24.746;2023-03-19T02:28:38;100092.25;;;2.85;76.37
8320;BME280;4197;42.130;24.746;2023-03-19T02:31:10;100102.31;;;2.93;75.88
8320;BME280;4197;42.130;24.746;2023-03-19T02:33:38;100101.59;;;2.87;76.32
8320;BME280;4197;42.130;24.746;2023-03-19T02:36:10;100111.19;;;2.70;76.86
8320;BME280;4197;42.130;24.746;2023-03-19T02:38:41;100115.75;;;2.69;78.41
8320;BME280;4197;42.130;24.746;2023-03-19T02:41:12;100114.94;;;2.68;78.58
8320;BME280;4197;42.130;24.746;2023-03-19T02:43:40;100116.75;;;2.73;78.49
8320;BME280;4197;42.130;24.746;2023-03-19T02:46:10;100120.47;;;2.77;78.77
8320;BME280;4197;42.130;24.746;2023-03-19T02:48:39;100121.59;;;2.95;77.34
8320;BME280;4197;42.130;24.746;2023-03-19T02:51:08;100122.22;;;2.87;77.12
8320;BME280;4197;42.130;24.746;2023-03-19T02:53:36;100121.50;;;2.81;78.66
8320;BME280;4197;42.130;24.746;2023-03-19T02:56:05;100118.03;;;2.81;78.29
8320;BME280;4197;42.130;24.746;2023-03-19T02:58:34;100111.16;;;2.94;77.44
8320;BME280;4197;42.130;24.746;2023-03-19T03:01:03;100108.41;;;2.99;77.44
8320;BME280;4197;42.130;24.746;2023-03-19T03:03:32;100114.41;;;3.15;75.93
8320;BME280;4197;42.130;24.746;2023-03-19T03:06:00;100105.78;;;3.18;74.45
8320;BME280;4197;42.130;24.746;2023-03-19T03:08:28;100107.59;;;3.22;73.72
8320;BME280;4197;42.130;24.746;2023-03-19T03:10:57;100113.81;;;3.18;74.17
8320;BME280;4197;42.130;24.746;2023-03-19T03:13:26;100109.56;;;3.17;73.67
8320;BME280;4197;42.130;24.746;2023-03-19T03:15:57;100111.72;;;3.15;73.21
8320;BME280;4197;42.130;24.746;2023-03-19T03:18:25;100109.41;;;3.08;74.04
8320;BME280;4197;42.130;24.746;2023-03-19T03:20:54;100113.59;;;3.14;73.17
8320;BME280;4197;42.130;24.746;2023-03-19T03:23:22;100121.44;;;3.10;73.27
8320;BME280;4197;42.130;24.746;2023-03-19T03:25:50;100124.97;;;3.06;73.49
8320;BME280;4197;42.130;24.746;2023-03-19T03:28:18;100118.00;;;3.05;73.40
8320;BME280;4197;42.130;24.746;2023-03-19T03:30:47;100130.00;;;3.07;73.83
8320;BME280;4197;42.130;24.746;2023-03-19T03:33:17;100117.06;;;3.15;73.64
8320;BME280;4197;42.130;24.746;2023-03-19T03:35:45;100115.91;;;3.21;72.75
8320;BME280;4197;42.130;24.746;2023-03-19T03:38:14;100121.72;;;3.28;72.75
8320;BME280;4197;42.130;24.746;2023-03-19T03:40:43;100124.47;;;3.23;72.95
8320;BME280;4197;42.130;24.746;2023-03-19T03:43:12;100119.19;;;3.37;72.41
8320;BME280;4197;42.130;24.746;2023-03-19T03:45:40;100128.88;;;3.32;72.54
8320;BME280;4197;42.130;24.746;2023-03-19T03:48:08;100125.56;;;3.22;72.83
8320;BME280;4197;42.130;24.746;2023-03-19T03:50:38;100134.41;;;3.22;72.77
8320;BME280;4197;42.130;24.746;2023-03-19T03:53:07;100129.19;;;3.31;72.52
8320;BME280;4197;42.130;24.746;2023-03-19T03:55:35;100130.03;;;3.26;72.57
8320;BME280;4197;42.130;24.746;2023-03-19T03:58:03;100135.13;;;3.28;72.69
8320;BME280;4197;42.130;24.746;2023-03-19T04:00:32;100137.22;;;3.31;72.47
8320;BME280;4197;42.130;24.746;2023-03-19T04:03:01;100138.81;;;3.32;72.19
8320;BME280;4197;42.130;24.746;2023-03-19T04:05:29;100141.56;;;3.27;72.65
8320;BME280;4197;42.130;24.746;2023-03-19T04:07:59;100141.56;;;3.27;72.95
8320;BME280;4197;42.130;24.746;2023-03-19T04:10:29;100135.56;;;3.35;72.86
8320;BME280;4197;42.130;24.746;2023-03-19T04:12:57;100135.28;;;3.37;72.27
8320;BME280;4197;42.130;24.746;2023-03-19T04:15:26;100139.84;;;3.36;72.41
8320;BME280;4197;42.130;24.746;2023-03-19T04:17:54;100141.44;;;3.37;72.84
8320;BME280;4197;42.130;24.746;2023-03-19T04:20:22;100142.53;;;3.36;72.37
8320;BME280;4197;42.130;24.746;2023-03-19T04:22:51;100134.84;;;3.29;73.00
8320;BME280;4197;42.130;24.746;2023-03-19T04:25:21;100137.97;;;3.37;72.21
8320;BME280;4197;42.130;24.746;2023-03-19T04:27:50;100141.44;;;3.37;72.26
8320;BME280;4197;42.130;24.746;2023-03-19T04:30:19;100144.97;;;3.32;72.59
8320;BME280;4197;42.130;24.746;2023-03-19T04:32:47;100145.91;;;3.23;73.12
8320;BME280;4197;42.130;24.746;2023-03-19T04:35:16;100150.63;;;3.31;72.91
8320;BME280;4197;42.130;24.746;2023-03-19T04:37:44;100151.16;;;3.33;72.89
8320;BME280;4197;42.130;24.746;2023-03-19T04:40:14;100151.16;;;3.33;73.18
8320;BME280;4197;42.130;24.746;2023-03-19T04:42:45;100147.84;;;3.41;72.42
8320;BME280;4197;42.130;24.746;2023-03-19T04:45:14;100144.56;;;3.44;72.53
8320;BME280;4197;42.130;24.746;2023-03-19T04:47:42;100143.41;;;3.50;71.70
8320;BME280;4197;42.130;24.746;2023-03-19T04:50:10;100138.56;;;3.52;71.46
8320;BME280;4197;42.130;24.746;2023-03-19T04:52:39;100139.28;;;3.58;71.04
8320;BME280;4197;42.130;24.746;2023-03-19T04:55:08;100147.03;;;3.60;71.03
8320;BME280;4197;42.130;24.746;2023-03-19T04:57:36;100149.78;;;3.54;71.12
8320;BME280;4197;42.130;24.746;2023-03-19T05:00:07;100148.47;;;3.52;71.13
8320;BME280;4197;42.130;24.746;2023-03-19T05:02:37;100151.91;;;3.57;71.15
8320;BME280;4197;42.130;24.746;2023-03-19T05:05:06;100149.63;;;3.65;69.84
8320;BME280;4197;42.130;24.746;2023-03-19T05:07:34;100161.88;;;3.71;69.08
8320;BME280;4197;42.130;24.746;2023-03-19T05:10:04;100165.09;;;3.73;69.05
8320;BME280;4197;42.130;24.746;2023-03-19T05:12:33;100167.19;;;3.76;69.26
8320;BME280;4197;42.130;24.746;2023-03-19T05:15:02;100170.31;;;3.83;68.35
8320;BME280;4197;42.130;24.746;2023-03-19T05:17:33;100181.25;;;3.87;68.24
8320;BME280;4197;42.130;24.746;2023-03-19T05:20:03;100177.97;;;3.90;68.27
8320;BME280;4197;42.130;24.746;2023-03-19T05:22:32;100176.09;;;3.90;68.21
8320;BME280;4197;42.130;24.746;2023-03-19T05:25:00;100166.31;;;3.99;68.21
8320;BME280;4197;42.130;24.746;2023-03-19T05:27:28;100171.81;;;4.08;67.23
8320;BME280;4197;42.130;24.746;2023-03-19T05:29:56;100164.69;;;3.98;67.84
8320;BME280;4197;42.130;24.746;2023-03-19T05:32:25;100173.09;;;4.11;67.86
8320;BME280;4197;42.130;24.746;2023-03-19T05:34:56;100167.22;;;4.09;67.30
8320;BME280;4197;42.130;24.746;2023-03-19T05:37:25;100171.97;;;4.31;65.80
8320;BME280;4197;42.130;24.746;2023-03-19T05:39:53;100169.41;;;4.39;65.31
8320;BME280;4197;42.130;24.746;2023-03-19T05:42:22;100170.13;;;4.45;65.42
8320;BME280;4197;42.130;24.746;2023-03-19T05:44:51;100178.69;;;4.47;65.57
8320;BME280;4197;42.130;24.746;2023-03-19T05:47:19;100188.63;;;4.46;64.91
8320;BME280;4197;42.130;24.746;2023-03-19T05:49:49;100183.25;;;4.46;64.33
8320;BME280;4197;42.130;24.746;2023-03-19T05:52:18;100190.22;;;4.47;64.92
8320;BME280;4197;42.130;24.746;2023-03-19T05:54:47;100187.56;;;4.61;64.12
8320;BME280;4197;42.130;24.746;2023-03-19T05:57:16;100195.81;;;4.65;63.96
8320;BME280;4197;42.130;24.746;2023-03-19T05:59:46;100201.09;;;4.70;64.08
8320;BME280;4197;42.130;24.746;2023-03-19T06:02:14;100203.09;;;4.64;64.28
8320;BME280;4197;42.130;24.746;2023-03-19T06:04:43;100201.34;;;4.41;64.78
8320;BME280;4197;42.130;24.746;2023-03-19T06:07:11;100208.03;;;4.43;65.34
8320;BME280;4197;42.130;24.746;2023-03-19T06:09:41;100210.91;;;4.47;65.57
8320;BME280;4197;42.130;24.746;2023-03-19T06:12:10;100204.16;;;4.50;64.92
8320;BME280;4197;42.130;24.746;2023-03-19T06:14:38;100205.81;;;4.45;64.64
8320;BME280;4197;42.130;24.746;2023-03-19T06:17:06;100213.53;;;4.52;64.77
8320;BME280;4197;42.130;24.746;2023-03-19T06:19:36;100217.50;;;4.55;64.87
8320;BME280;4197;42.130;24.746;2023-03-19T06:22:04;100217.72;;;4.58;65.33
8320;BME280;4197;42.130;24.746;2023-03-19T06:24:33;100212.06;;;4.74;65.39
8320;BME280;4197;42.130;24.746;2023-03-19T06:27:04;100214.19;;;4.77;65.22
8320;BME280;4197;42.130;24.746;2023-03-19T06:29:32;100214.56;;;4.84;64.85
8320;BME280;4197;42.130;24.746;2023-03-19T06:32:01;100212.09;;;5.01;64.24
8320;BME280;4197;42.130;24.746;2023-03-19T06:34:29;100210.69;;;5.04;63.96
8320;BME280;4197;42.130;24.746;2023-03-19T06:36:58;100211.13;;;5.11;63.57
8320;BME280;4197;42.130;24.746;2023-03-19T06:39:26;100205.84;;;5.20;63.18
8320;BME280;4197;42.130;24.746;2023-03-19T06:41:54;100205.66;;;5.16;63.25
8320;BME280;4197;42.130;24.746;2023-03-19T06:44:26;100198.38;;;5.17;63.79
8320;BME280;4197;42.130;24.746;2023-03-19T06:46:54;100202.44;;;5.28;62.76
8320;BME280;4197;42.130;24.746;2023-03-19T06:49:23;100200.44;;;5.33;62.72
8320;BME280;4197;42.130;24.746;2023-03-19T06:51:51;100197.25;;;5.31;63.23
8320;BME280;4197;42.130;24.746;2023-03-19T06:54:20;100194.97;;;5.39;63.43
8320;BME280;4197;42.130;24.746;2023-03-19T06:56:49;100190.94;;;5.64;62.12
8320;BME280;4197;42.130;24.746;2023-03-19T06:59:17;100196.00;;;5.65;62.48
8320;BME280;4197;42.130;24.746;2023-03-19T07:01:47;100196.84;;;5.66;62.92
8320;BME280;4197;42.130;24.746;2023-03-19T07:04:15;100196.47;;;5.81;62.83
8320;BME280;4197;42.130;24.746;2023-03-19T07:06:44;100188.88;;;5.97;62.13
8320;BME280;4197;42.130;24.746;2023-03-19T07:09:13;100185.47;;;6.05;61.46
8320;BME280;4197;42.130;24.746;2023-03-19T07:11:41;100190.53;;;6.07;61.08
8320;BME280;4197;42.130;24.746;2023-03-19T07:14:10;100192.22;;;6.16;60.91
8320;BME280;4197;42.130;24.746;2023-03-19T07:16:38;100187.38;;;6.27;60.92
8320;BME280;4197;42.130;24.746;2023-03-19T07:19:08;100184.97;;;6.25;63.18
8320;BME280;4197;42.130;24.746;2023-03-19T07:21:38;100185.69;;;6.40;61.50
8320;BME280;4197;42.130;24.746;2023-03-19T07:24:07;100178.94;;;6.74;58.83
8320;BME280;4197;42.130;24.746;2023-03-19T07:26:35;100179.75;;;6.83;58.28
8320;BME280;4197;42.130;24.746;2023-03-19T07:29:04;100181.84;;;6.86;57.79
8320;BME280;4197;42.130;24.746;2023-03-19T07:31:32;100175.31;;;6.87;58.43
8320;BME280;4197;42.130;24.746;2023-03-19T07:34:01;100174.47;;;7.18;56.80
8320;BME280;4197;42.130;24.746;2023-03-19T07:36:31;100177.25;;;7.35;54.90
8320;BME280;4197;42.130;24.746;2023-03-19T07:38:59;100170.72;;;7.36;55.47
8320;BME280;4197;42.130;24.746;2023-03-19T07:41:28;100175.03;;;7.46;55.29
8320;BME280;4197;42.130;24.746;2023-03-19T07:43:56;100167.13;;;7.67;54.37
8320;BME280;4197;42.130;24.746;2023-03-19T07:46:24;100174.56;;;7.70;54.66
8320;BME280;4197;42.130;24.746;2023-03-19T07:48:52;100167.13;;;7.75;54.79
8320;BME280;4197;42.130;24.746;2023-03-19T07:51:20;100172.69;;;7.88;54.46
8320;BME280;4197;42.130;24.746;2023-03-19T07:53:50;100166.78;;;8.03;53.50
8320;BME280;4197;42.130;24.746;2023-03-19T07:56:18;100172.69;;;8.05;53.19
8320;BME280;4197;42.130;24.746;2023-03-19T07:58:47;100160.28;;;8.13;53.47
8320;BME280;4197;42.130;24.746;2023-03-19T08:01:15;100167.59;;;8.21;53.07
8320;BME280;4197;42.130;24.746;2023-03-19T08:03:44;100171.84;;;8.57;50.18
8320;BME280;4197;42.130;24.746;2023-03-19T08:06:14;100166.28;;;8.62;50.53
8320;BME280;4197;42.130;24.746;2023-03-19T08:08:42;100168.13;;;8.70;50.65
8320;BME280;4197;42.130;24.746;2023-03-19T08:11:12;100159.84;;;8.75;50.89
8320;BME280;4197;42.130;24.746;2023-03-19T08:13:40;100163.59;;;8.91;49.51
8320;BME280;4197;42.130;24.746;2023-03-19T08:16:09;100152.94;;;8.86;49.21
8320;BME280;4197;42.130;24.746;2023-03-19T08:18:37;100155.44;;;9.00;49.88
8320;BME280;4197;42.130;24.746;2023-03-19T08:21:06;100156.22;;;9.30;48.27
8320;BME280;4197;42.130;24.746;2023-03-19T08:23:34;100148.28;;;9.34;48.54
8320;BME280;4197;42.130;24.746;2023-03-19T08:26:02;100143.13;;;9.41;47.63
8320;BME280;4197;42.130;24.746;2023-03-19T08:28:32;100146.53;;;9.50;47.38
8320;BME280;4197;42.130;24.746;2023-03-19T08:31:06;100150.66;;;9.56;47.26
8320;BME280;4197;42.130;24.746;2023-03-19T08:33:34;100140.59;;;9.78;46.85
8320;BME280;4197;42.130;24.746;2023-03-19T08:36:05;100135.56;;;9.89;46.92
8320;BME280;4197;42.130;24.746;2023-03-19T08:38:34;100139.44;;;10.21;45.72
8320;BME280;4197;42.130;24.746;2023-03-19T08:41:02;100125.94;;;10.33;45.29
8320;BME280;4197;42.130;24.746;2023-03-19T08:43:34;100124.94;;;10.38;44.55
8320;BME280;4197;42.130;24.746;2023-03-19T08:46:03;100126.88;;;10.49;44.03
8320;BME280;4197;42.130;24.746;2023-03-19T08:48:31;100132.66;;;10.48;43.96
8320;BME280;4197;42.130;24.746;2023-03-19T08:51:01;100128.81;;;10.61;43.74
8320;BME280;4197;42.130;24.746;2023-03-19T08:53:31;100125.78;;;10.63;43.62
8320;BME280;4197;42.130;24.746;2023-03-19T08:56:03;100126.59;;;10.76;42.98
8320;BME280;4197;42.130;24.746;2023-03-19T08:58:33;100123.63;;;10.68;43.79
8320;BME280;4197;42.130;24.746;2023-03-19T09:01:04;100127.84;;;10.78;43.50
8320;BME280;4197;42.130;24.746;2023-03-19T09:03:33;100119.00;;;10.93;42.02
8320;BME280;4197;42.130;24.746;2023-03-19T09:06:03;100119.09;;;10.97;42.00
8320;BME280;4197;42.130;24.746;2023-03-19T09:08:32;100119.25;;;11.01;41.49
8320;BME280;4197;42.130;24.746;2023-03-19T09:11:03;100109.59;;;11.15;39.28
8320;BME280;4197;42.130;24.746;2023-03-19T09:13:33;100116.16;;;11.27;39.49
8320;BME280;4197;42.130;24.746;2023-03-19T09:16:02;100107.78;;;11.32;39.24
8320;BME280;4197;42.130;24.746;2023-03-19T09:18:31;100110.44;;;11.44;38.78
8320;BME280;4197;42.130;24.746;2023-03-19T09:21:00;100093.72;;;11.42;39.01
8320;BME280;4197;42.130;24.746;2023-03-19T09:23:28;100087.31;;;11.63;39.01
8320;BME280;4197;42.130;24.746;2023-03-19T09:25:56;100086.38;;;11.71;39.61
8320;BME280;4197;42.130;24.746;2023-03-19T09:28:24;100085.00;;;11.77;39.78
8320;BME280;4197;42.130;24.746;2023-03-19T09:30:54;100084.13;;;12.01;39.68
8320;BME280;4197;42.130;24.746;2023-03-19T09:33:23;100080.56;;;12.28;38.98
8320;BME280;4197;42.130;24.746;2023-03-19T09:35:52;100079.69;;;12.24;38.92
8320;BME280;4197;42.130;24.746;2023-03-19T09:38:21;100076.78;;;12.17;39.15
8320;BME280;4197;42.130;24.746;2023-03-19T09:41:00;100071.44;;;12.21;39.28
8320;BME280;4197;42.130;24.746;2023-03-19T09:43:51;100070.31;;;12.38;39.31
8320;BME280;4197;42.130;24.746;2023-03-19T09:46:29;100065.13;;;12.48;39.54
8320;BME280;4197;42.130;24.746;2023-03-19T09:49:03;100061.63;;;12.64;39.35
8320;BME280;4197;42.130;24.746;2023-03-19T09:51:40;100052.56;;;12.76;40.01
8320;BME280;4197;42.130;24.746;2023-03-19T09:54:28;100052.84;;;12.70;40.51
8320;BME280;4197;42.130;24.746;2023-03-19T09:56:58;100050.91;;;12.71;40.19
8320;BME280;4197;42.130;24.746;2023-03-19T09:59:28;100048.94;;;12.87;39.94
8320;BME280;4197;42.130;24.746;2023-03-19T10:02:23;100042.69;;;13.03;39.33
8320;BME280;4197;42.130;24.746;2023-03-19T10:05:02;100046.06;;;13.15;39.68
8320;BME280;4197;42.130;24.746;2023-03-19T10:07:55;100030.84;;;13.30;38.92
8320;BME280;4197;42.130;24.746;2023-03-19T10:10:41;100034.50;;;13.38;39.13
8320;BME280;4197;42.130;24.746;2023-03-19T10:13:19;100026.19;;;13.50;39.52
8320;BME280;4197;42.130;24.746;2023-03-19T10:15:52;100020.81;;;13.54;39.71
8320;BME280;4197;42.130;24.746;2023-03-19T10:18:29;100015.50;;;13.42;40.22
8320;BME280;4197;42.130;24.746;2023-03-19T10:21:02;100013.56;;;13.42;40.55
8320;BME280;4197;42.130;24.746;2023-03-19T10:23:41;100009.19;;;13.57;40.25
8320;BME280;4197;42.130;24.746;2023-03-19T10:26:15;100000.91;;;13.73;41.12
8320;BME280;4197;42.130;24.746;2023-03-19T10:28:45;99995.25;;;13.62;40.84
8320;BME280;4197;42.130;24.746;2023-03-19T10:31:25;99992.59;;;13.66;40.71
8320;BME280;4197;42.130;24.746;2023-03-19T10:34:06;99979.16;;;13.76;40.75
8320;BME280;4197;42.130;24.746;2023-03-19T10:36:40;99980.78;;;14.00;40.02
8320;BME280;4197;42.130;24.746;2023-03-19T10:39:08;99973.59;;;14.15;39.89
8320;BME280;4197;42.130;24.746;2023-03-19T10:41:46;99964.69;;;14.18;39.94
8320;BME280;4197;42.130;24.746;2023-03-19T10:44:27;99960.81;;;14.19;40.27
8320;BME280;4197;42.130;24.746;2023-03-19T10:46:57;99957.84;;;14.28;39.71
8320;BME280;4197;42.130;24.746;2023-03-19T10:49:27;99962.72;;;14.42;39.84
8320;BME280;4197;42.130;24.746;2023-03-19T10:51:56;99952.13;;;14.37;40.09
8320;BME280;4197;42.130;24.746;2023-03-19T10:54:26;99946.78;;;14.44;40.06
8320;BME280;4197;42.130;24.746;2023-03-19T10:56:56;99946.22;;;14.58;39.40
8320;BME280;4197;42.130;24.746;2023-03-19T10:59:30;99944.38;;;14.65;38.75
8320;BME280;4197;42.130;24.746;2023-03-19T11:02:02;99935.06;;;14.43;39.28
8320;BME280;4197;42.130;24.746;2023-03-19T11:04:32;99935.13;;;14.47;39.17
8320;BME280;4197;42.130;24.746;2023-03-19T11:07:04;99933.38;;;14.35;39.74
8320;BME280;4197;42.130;24.746;2023-03-19T11:09:37;99929.66;;;14.47;39.59
8320;BME280;4197;42.130;24.746;2023-03-19T11:12:07;99925.50;;;14.53;39.54
8320;BME280;4197;42.130;24.746;2023-03-19T11:14:43;99912.91;;;14.48;39.70
8320;BME280;4197;42.130;24.746;2023-03-19T11:17:20;99914.88;;;14.48;39.75
8320;BME280;4197;42.130;24.746;2023-03-19T11:19:53;99914.19;;;14.55;40.14
8320;BME280;4197;42.130;24.746;2023-03-19T11:22:23;99903.81;;;14.64;39.98
8320;BME280;4197;42.130;24.746;2023-03-19T11:24:55;99900.84;;;14.76;39.88
8320;BME280;4197;42.130;24.746;2023-03-19T11:27:29;99889.72;;;14.92;39.71
8320;BME280;4197;42.130;24.746;2023-03-19T11:29:58;99887.88;;;15.00;39.41
8320;BME280;4197;42.130;24.746;2023-03-19T11:33:06;99884.00;;;15.04;39.04
8320;BME280;4197;42.130;24.746;2023-03-19T11:35:43;99878.19;;;15.06;39.31
8320;BME280;4197;42.130;24.746;2023-03-19T11:38:22;99879.84;;;15.14;39.20
8320;BME280;4197;42.130;24.746;2023-03-19T11:41:00;99874.41;;;15.17;39.08
8320;BME280;4197;42.130;24.746;2023-03-19T11:43:49;99873.72;;;15.28;39.07
8320;BME280;4197;42.130;24.746;2023-03-19T11:46:28;99869.91;;;15.36;38.89
8320;BME280;4197;42.130;24.746;2023-03-19T11:52:17;99863.34;;;15.44;38.53
8320;BME280;4197;42.130;24.746;2023-03-19T11:58:00;99862.81;;;15.31;39.44
8320;BME280;4197;42.130;24.746;2023-03-19T12:00:35;99859.41;;;15.42;39.02
8320;BME280;4197;42.130;24.746;2023-03-19T12:03:35;99860.63;;;15.48;38.52
8320;BME280;4197;42.130;24.746;2023-03-19T12:06:13;99848.09;;;15.43;38.46
8320;BME280;4197;42.130;24.746;2023-03-19T12:08:49;99852.00;;;15.42;38.75
8320;BME280;4197;42.130;24.746;2023-03-19T12:11:23;99846.56;;;15.46;38.61
8320;BME280;4197;42.130;24.746;2023-03-19T12:14:07;99847.63;;;15.34;39.03
8320;BME280;4197;42.130;24.746;2023-03-19T12:16:52;99848.59;;;15.52;38.74
8320;BME280;4197;42.130;24.746;2023-03-19T12:19:51;99851.22;;;15.42;39.12
8320;BME280;4197;42.130;24.746;2023-03-19T12:22:31;99849.38;;;15.56;38.98
8320;BME280;4197;42.130;24.746;2023-03-19T12:25:28;99837.03;;;15.70;38.66
8320;BME280;4197;42.130;24.746;2023-03-19T12:28:03;99846.72;;;15.64;38.91
8320;BME280;4197;42.130;24.746;2023-03-19T12:30:37;99844.91;;;15.75;38.81
8320;BME280;4197;42.130;24.746;2023-03-19T12:33:18;99837.97;;;15.88;38.80
8320;BME280;4197;42.130;24.746;2023-03-19T12:35:52;99839.63;;;16.03;38.14
8320;BME280;4197;42.130;24.746;2023-03-19T12:38:26;99831.25;;;15.82;38.69
8320;BME280;4197;42.130;24.746;2023-03-19T12:40:59;99826.53;;;15.75;38.74
8320;BME280;4197;42.130;24.746;2023-03-19T12:43:32;99823.44;;;15.80;38.53
8320;BME280;4197;42.130;24.746;2023-03-19T12:46:07;99811.75;;;15.87;38.16
8320;BME280;4197;42.130;24.746;2023-03-19T12:48:41;99813.28;;;15.81;38.38
8320;BME280;4197;42.130;24.746;2023-03-19T12:51:12;99808.19;;;15.76;38.62
8320;BME280;4197;42.130;24.746;2023-03-19T12:53:46;99800.16;;;16.04;38.47
8320;BME280;4197;42.130;24.746;2023-03-19T12:56:21;99802.53;;;16.10;38.17
8320;BME280;4197;42.130;24.746;2023-03-19T12:58:58;99804.50;;;16.13;37.81
8320;BME280;4197;42.130;24.746;2023-03-19T13:01:32;99798.19;;;16.01;37.86
8320;BME280;4197;42.130;24.746;2023-03-19T13:04:05;99799.41;;;16.08;38.27
8320;BME280;4197;42.130;24.746;2023-03-19T13:06:40;99787.66;;;16.07;38.27
8320;BME280;4197;42.130;24.746;2023-03-19T13:09:15;99792.34;;;16.06;38.22
8320;BME280;4197;42.130;24.746;2023-03-19T13:11:52;99787.22;;;16.01;38.30
8320;BME280;4197;42.130;24.746;2023-03-19T13:14:25;99789.19;;;16.01;38.30
8320;BME280;4197;42.130;24.746;2023-03-19T13:17:01;99787.72;;;16.14;37.51
8320;BME280;4197;42.130;24.746;2023-03-19T13:19:42;99775.16;;;16.10;37.98
8320;BME280;4197;42.130;24.746;2023-03-19T13:22:13;99779.88;;;16.13;37.66
8320;BME280;4197;42.130;24.746;2023-03-19T13:24:45;99773.66;;;16.19;38.02
8320;BME280;4197;42.130;24.746;2023-03-19T13:27:19;99764.31;;;16.24;37.72
8320;BME280;4197;42.130;24.746;2023-03-19T13:29:57;99762.34;;;16.24;38.10
8320;BME280;4197;42.130;24.746;2023-03-19T13:32:35;99759.97;;;16.16;38.31
8320;BME280;4197;42.130;24.746;2023-03-19T13:35:16;99764.69;;;16.19;37.97
8320;BME280;4197;42.130;24.746;2023-03-19T13:37:54;99743.22;;;16.32;38.03